createdAt,value
2017-09-01T00:00:51.179Z,11.85
2017-09-01T00:01:50.513Z,11.8
2017-09-01T00:02:50.815Z,11.85
2017-09-01T00:03:50.477Z,11.8
2017-09-01T00:04:50.465Z,11.83
2017-09-01T00:05:50.450Z,11.65
2017-09-01T00:06:50.759Z,11.83
2017-09-01T00:07:50.749Z,11.74
2017-09-01T00:08:51.246Z,11.72
2017-09-01T00:09:51.042Z,11.65
2017-09-01T00:10:51.016Z,11.68
2017-09-01T00:11:50.679Z,11.7
2017-09-01T00:12:50.985Z,11.67
2017-09-01T00:13:50.654Z,11.61
2017-09-01T00:14:50.317Z,11.61
2017-09-01T00:15:50.944Z,11.59
2017-09-01T00:16:50.610Z,11.65
2017-09-01T00:17:50.275Z,11.64
2017-09-01T00:18:50.258Z,11.61
2017-09-01T00:19:50.884Z,11.67
2017-09-01T00:20:50.555Z,11.64
2017-09-01T00:21:50.541Z,11.65
2017-09-01T00:22:50.575Z,11.62
2017-09-01T00:23:50.828Z,11.65
2017-09-01T00:24:50.818Z,11.62
2017-09-01T00:25:50.152Z,11.65
2017-09-01T00:26:50.460Z,11.65
2017-09-01T00:27:50.770Z,11.65
2017-09-01T00:28:50.110Z,11.68
2017-09-01T00:29:50.419Z,11.65
2017-09-01T00:30:50.407Z,11.59
2017-09-01T00:31:50.389Z,11.62
2017-09-01T00:32:50.368Z,11.62
2017-09-01T00:33:50.676Z,11.65
2017-09-01T00:34:50.674Z,11.64
2017-09-01T00:35:50.335Z,11.65
2017-09-01T00:36:49.991Z,11.57
2017-09-01T00:37:49.979Z,11.64
2017-09-01T00:38:50.285Z,11.57
2017-09-01T00:39:50.593Z,11.52
2017-09-01T00:40:50.579Z,11.5
2017-09-01T00:41:49.920Z,11.59
2017-09-01T00:42:49.906Z,11.52
2017-09-01T00:43:50.214Z,11.56
2017-09-01T00:44:50.525Z,11.52
2017-09-01T00:45:50.512Z,11.57
2017-09-01T00:46:49.847Z,11.53
2017-09-01T00:47:50.150Z,11.54
2017-09-01T00:48:50.136Z,11.53
2017-09-01T00:49:50.122Z,11.57
2017-09-01T00:50:50.430Z,11.52
2017-09-01T00:51:50.424Z,11.54
2017-09-01T00:52:50.397Z,11.57
2017-09-01T00:53:50.067Z,11.53
2017-09-01T00:54:50.369Z,11.53
2017-09-01T00:55:50.354Z,11.56
2017-09-01T00:56:50.018Z,11.5
2017-09-01T00:57:50.001Z,11.54
2017-09-01T00:58:49.989Z,11.47
2017-09-01T00:59:49.974Z,11.57
2017-09-01T01:00:50.282Z,11.53
2017-09-01T01:01:50.268Z,11.53
2017-09-01T01:02:49.928Z,11.52
2017-09-01T01:03:49.914Z,11.61
2017-09-01T01:04:49.581Z,11.44
2017-09-01T01:05:49.888Z,11.47
2017-09-01T01:06:49.867Z,11.47
2017-09-01T01:07:49.537Z,11.52
2017-09-01T01:08:49.524Z,11.46
2017-09-01T01:09:50.156Z,11.57
2017-09-01T01:10:50.159Z,11.44
2017-09-01T01:11:50.147Z,11.49
2017-09-01T01:12:49.835Z,11.56
2017-09-01T01:13:49.530Z,11.57
2017-09-01T01:14:49.453Z,11.49
2017-09-01T01:15:49.740Z,11.53
2017-09-01T01:16:50.042Z,11.41
2017-09-01T01:17:49.706Z,11.46
2017-09-01T01:18:49.695Z,11.5
2017-09-01T01:19:49.999Z,11.52
2017-09-01T01:20:49.990Z,11.52
2017-09-01T01:21:49.334Z,11.5
2017-09-01T01:22:49.644Z,11.49
2017-09-01T01:23:49.302Z,11.46
2017-09-01T01:24:49.607Z,11.52
2017-09-01T01:25:49.268Z,11.5
2017-09-01T01:26:49.573Z,11.44
2017-09-01T01:27:49.878Z,11.46
2017-09-01T01:28:49.545Z,11.56
2017-09-01T01:29:49.530Z,11.54
2017-09-01T01:30:49.835Z,11.52
2017-09-01T01:31:49.502Z,11.44
2017-09-01T01:32:49.164Z,11.43
2017-09-01T01:33:49.474Z,11.43
2017-09-01T01:34:49.488Z,11.39
2017-09-01T01:35:49.763Z,11.36
2017-09-01T01:36:49.751Z,11.41
2017-09-01T01:37:49.413Z,11.35
2017-09-01T01:38:49.719Z,11.36
2017-09-01T01:39:49.380Z,11.34
2017-09-01T01:40:49.690Z,11.34
2017-09-01T01:41:49.694Z,11.36
2017-09-01T01:42:49.015Z,11.43
2017-09-01T01:43:49.324Z,11.36
2017-09-01T01:44:49.305Z,11.38
2017-09-01T01:45:48.973Z,11.41
2017-09-01T01:46:49.596Z,11.39
2017-09-01T01:47:49.277Z,11.43
2017-09-01T01:48:48.930Z,11.46
2017-09-01T01:49:49.232Z,11.32
2017-09-01T01:50:48.895Z,11.38
2017-09-01T01:51:49.669Z,11.41
2017-09-01T01:52:49.186Z,11.36
2017-09-01T01:53:48.854Z,11.38
2017-09-01T01:54:49.157Z,11.38
2017-09-01T01:55:49.142Z,11.39
2017-09-01T01:56:49.130Z,11.31
2017-09-01T01:57:49.114Z,11.31
2017-09-01T01:58:49.426Z,11.29
2017-09-01T01:59:48.760Z,11.34
2017-09-01T02:00:49.070Z,11.35
2017-09-01T02:01:48.730Z,11.35
2017-09-01T02:02:49.040Z,11.27
2017-09-01T02:03:49.470Z,11.24
2017-09-01T02:04:48.686Z,11.28
2017-09-01T02:05:48.996Z,11.29
2017-09-01T02:06:48.979Z,11.24
2017-09-01T02:07:48.646Z,11.32
2017-09-01T02:08:49.477Z,11.31
2017-09-01T02:09:48.617Z,11.31
2017-09-01T02:10:48.918Z,11.2
2017-09-01T02:11:48.585Z,11.25
2017-09-01T02:12:48.566Z,11.25
2017-09-01T02:13:48.554Z,11.28
2017-09-01T02:14:48.539Z,11.2
2017-09-01T02:15:48.844Z,11.31
2017-09-01T02:16:49.149Z,11.27
2017-09-01T02:17:48.816Z,11.24
2017-09-01T02:18:48.799Z,11.27
2017-09-01T02:19:49.119Z,11.25
2017-09-01T02:20:48.778Z,11.19
2017-09-01T02:21:48.762Z,11.25
2017-09-01T02:22:49.064Z,11.2
2017-09-01T02:23:49.054Z,11.17
2017-09-01T02:24:48.711Z,11.19
2017-09-01T02:25:48.369Z,11.09
2017-09-01T02:26:48.363Z,11.11
2017-09-01T02:27:48.672Z,11.07
2017-09-01T02:28:48.328Z,11.13
2017-09-01T02:29:48.632Z,11.1
2017-09-01T02:30:48.942Z,11.09
2017-09-01T02:31:48.604Z,11.09
2017-09-01T02:32:48.598Z,11.09
2017-09-01T02:33:48.896Z,11.01
2017-09-01T02:34:48.936Z,11.1
2017-09-01T02:35:48.221Z,11.07
2017-09-01T02:36:48.207Z,11.09
2017-09-01T02:37:48.516Z,11.01
2017-09-01T02:38:48.177Z,11.03
2017-09-01T02:39:48.484Z,11.07
2017-09-01T02:40:48.148Z,11.09
2017-09-01T02:41:48.451Z,11.11
2017-09-01T02:42:48.118Z,11.16
2017-09-01T02:43:48.100Z,11.07
2017-09-01T02:44:48.409Z,11.03
2017-09-01T02:45:48.394Z,11.06
2017-09-01T02:46:48.377Z,11.14
2017-09-01T02:47:48.363Z,11.06
2017-09-01T02:48:48.670Z,11.1
2017-09-01T02:49:48.342Z,11.09
2017-09-01T02:50:48.362Z,11.1
2017-09-01T02:51:48.299Z,11.09
2017-09-01T02:52:47.962Z,10.99
2017-09-01T02:53:48.273Z,11.02
2017-09-01T02:54:48.257Z,11.02
2017-09-01T02:55:48.245Z,10.96
2017-09-01T02:56:47.903Z,10.99
2017-09-01T02:57:48.234Z,11.06
2017-09-01T02:58:47.875Z,10.96
2017-09-01T02:59:48.181Z,10.98
2017-09-01T03:00:48.166Z,10.98
2017-09-01T03:01:48.154Z,10.98
2017-09-01T03:02:48.132Z,10.95
2017-09-01T03:03:48.123Z,10.98
2017-09-01T03:04:48.425Z,10.98
2017-09-01T03:05:48.091Z,10.98
2017-09-01T03:06:47.751Z,10.96
2017-09-01T03:07:48.057Z,10.92
2017-09-01T03:08:48.040Z,10.89
2017-09-01T03:09:48.026Z,10.96
2017-09-01T03:10:48.334Z,10.96
2017-09-01T03:11:47.996Z,10.88
2017-09-01T03:12:47.659Z,10.88
2017-09-01T03:13:47.964Z,10.86
2017-09-01T03:14:47.629Z,10.86
2017-09-01T03:15:47.617Z,10.92
2017-09-01T03:16:47.921Z,10.91
2017-09-01T03:17:47.585Z,10.91
2017-09-01T03:18:47.891Z,10.8
2017-09-01T03:19:47.875Z,10.89
2017-09-01T03:20:48.178Z,10.92
2017-09-01T03:21:47.532Z,10.94
2017-09-01T03:22:48.158Z,10.84
2017-09-01T03:23:47.819Z,10.91
2017-09-01T03:24:47.848Z,10.88
2017-09-01T03:25:47.783Z,10.89
2017-09-01T03:26:48.092Z,10.83
2017-09-01T03:27:47.758Z,10.88
2017-09-01T03:28:47.419Z,10.91
2017-09-01T03:29:47.736Z,10.84
2017-09-01T03:30:47.709Z,10.8
2017-09-01T03:31:47.690Z,10.8
2017-09-01T03:32:47.372Z,10.8
2017-09-01T03:33:47.986Z,10.78
2017-09-01T03:34:47.644Z,10.78
2017-09-01T03:35:47.629Z,10.8
2017-09-01T03:36:47.294Z,10.81
2017-09-01T03:37:47.599Z,10.78
2017-09-01T03:38:47.584Z,10.78
2017-09-01T03:39:47.569Z,10.83
2017-09-01T03:40:47.890Z,10.78
2017-09-01T03:41:47.863Z,10.78
2017-09-01T03:42:47.530Z,10.8
2017-09-01T03:43:47.190Z,10.84
2017-09-01T03:44:47.826Z,10.83
2017-09-01T03:45:47.479Z,10.76
2017-09-01T03:46:47.459Z,10.77
2017-09-01T03:47:47.448Z,10.78
2017-09-01T03:48:47.756Z,10.8
2017-09-01T03:49:47.421Z,10.8
2017-09-01T03:50:47.412Z,10.74
2017-09-01T03:51:47.070Z,10.7
2017-09-01T03:52:47.693Z,10.71
2017-09-01T03:53:47.038Z,10.71
2017-09-01T03:54:47.344Z,10.78
2017-09-01T03:55:47.324Z,10.7
2017-09-01T03:56:46.992Z,10.76
2017-09-01T03:57:46.978Z,10.73
2017-09-01T03:58:46.958Z,10.77
2017-09-01T03:59:47.261Z,10.71
2017-09-01T04:00:47.246Z,10.68
2017-09-01T04:01:46.907Z,10.71
2017-09-01T04:02:46.896Z,10.76
2017-09-01T04:03:47.526Z,10.66
2017-09-01T04:04:46.863Z,10.74
2017-09-01T04:05:46.851Z,10.73
2017-09-01T04:06:47.154Z,10.73
2017-09-01T04:07:47.462Z,10.71
2017-09-01T04:08:47.330Z,10.68
2017-09-01T04:09:47.430Z,10.7
2017-09-01T04:10:47.413Z,10.65
2017-09-01T04:11:47.406Z,10.65
2017-09-01T04:12:47.063Z,10.59
2017-09-01T04:13:47.055Z,10.63
2017-09-01T04:14:47.037Z,10.58
2017-09-01T04:15:47.012Z,10.73
2017-09-01T04:16:47.000Z,10.66
2017-09-01T04:17:46.992Z,10.65
2017-09-01T04:18:47.295Z,10.65
2017-09-01T04:19:46.957Z,10.73
2017-09-01T04:20:47.258Z,10.63
2017-09-01T04:21:46.927Z,10.68
2017-09-01T04:22:46.908Z,10.73
2017-09-01T04:23:46.892Z,10.71
2017-09-01T04:24:47.197Z,10.7
2017-09-01T04:25:46.865Z,10.7
2017-09-01T04:26:46.846Z,10.77
2017-09-01T04:27:46.826Z,10.8
2017-09-01T04:28:46.815Z,10.83
2017-09-01T04:29:47.118Z,10.84
2017-09-01T04:30:46.781Z,10.91
2017-09-01T04:31:46.775Z,10.95
2017-09-01T04:32:46.768Z,10.94
2017-09-01T04:33:46.425Z,10.95
2017-09-01T04:34:47.045Z,11.02
2017-09-01T04:35:46.710Z,11.07
2017-09-01T04:36:46.694Z,11.16
2017-09-01T04:37:46.682Z,11.11
2017-09-01T04:38:46.988Z,11.27
2017-09-01T04:39:46.327Z,11.27
2017-09-01T04:40:46.313Z,11.31
2017-09-01T04:41:46.295Z,11.27
2017-09-01T04:42:46.600Z,11.28
2017-09-01T04:43:46.588Z,11.34
2017-09-01T04:44:46.583Z,11.36
2017-09-01T04:45:46.233Z,11.31
2017-09-01T04:46:46.859Z,11.43
2017-09-01T04:47:46.204Z,11.35
2017-09-01T04:48:46.190Z,11.44
2017-09-01T04:49:46.492Z,11.47
2017-09-01T04:50:46.486Z,11.53
2017-09-01T04:51:46.142Z,11.49
2017-09-01T04:52:46.460Z,11.54
2017-09-01T04:53:46.440Z,11.54
2017-09-01T04:54:46.742Z,11.56
2017-09-01T04:55:46.406Z,11.61
2017-09-01T04:56:46.713Z,11.64
2017-09-01T04:57:46.695Z,11.54
2017-09-01T04:58:46.043Z,11.67
2017-09-01T04:59:46.027Z,11.68
2017-09-01T05:00:46.653Z,11.64
2017-09-01T05:01:46.317Z,11.64
2017-09-01T05:02:46.304Z,11.62
2017-09-01T05:03:45.973Z,11.68
2017-09-01T05:04:46.299Z,11.68
2017-09-01T05:05:46.572Z,11.64
2017-09-01T05:06:46.560Z,11.75
2017-09-01T05:07:45.906Z,11.82
2017-09-01T05:08:45.897Z,11.8
2017-09-01T05:09:46.519Z,11.78
2017-09-01T05:10:45.861Z,11.85
2017-09-01T05:11:46.175Z,11.8
2017-09-01T05:12:45.833Z,11.9
2017-09-01T05:13:46.464Z,11.93
2017-09-01T05:14:46.125Z,11.97
2017-09-01T05:15:46.484Z,11.97
2017-09-01T05:16:46.097Z,11.99
2017-09-01T05:17:45.759Z,12.01
2017-09-01T05:18:46.064Z,12.06
2017-09-01T05:19:46.370Z,12.05
2017-09-01T05:20:46.359Z,12.09
2017-09-01T05:21:46.351Z,12.12
2017-09-01T05:22:46.019Z,12.2
2017-09-01T05:23:46.321Z,12.13
2017-09-01T05:24:46.300Z,12.2
2017-09-01T05:25:45.643Z,12.27
2017-09-01T05:26:45.628Z,12.31
2017-09-01T05:27:45.614Z,12.41
2017-09-01T05:28:45.927Z,12.29
2017-09-01T05:29:46.231Z,12.34
2017-09-01T05:30:45.620Z,12.41
2017-09-01T05:31:45.558Z,12.46
2017-09-01T05:32:45.543Z,12.52
2017-09-01T05:33:45.525Z,12.49
2017-09-01T05:34:46.156Z,12.45
2017-09-01T05:35:45.818Z,12.48
2017-09-01T05:36:45.488Z,12.62
2017-09-01T05:37:45.812Z,12.51
2017-09-01T05:38:45.785Z,12.62
2017-09-01T05:39:45.765Z,12.63
2017-09-01T05:40:45.430Z,12.67
2017-09-01T05:41:45.415Z,12.67
2017-09-01T05:42:46.055Z,12.62
2017-09-01T05:43:46.029Z,12.71
2017-09-01T05:44:45.704Z,12.7
2017-09-01T05:45:45.679Z,12.71
2017-09-01T05:46:45.670Z,12.81
2017-09-01T05:47:45.334Z,12.78
2017-09-01T05:48:45.320Z,12.79
2017-09-01T05:49:45.950Z,12.77
2017-09-01T05:50:45.608Z,12.81
2017-09-01T05:51:45.916Z,12.81
2017-09-01T05:52:45.908Z,12.84
2017-09-01T05:53:45.572Z,12.88
2017-09-01T05:54:45.595Z,12.82
2017-09-01T05:55:45.544Z,12.87
2017-09-01T05:56:45.533Z,12.93
2017-09-01T05:57:45.513Z,12.87
2017-09-01T05:58:45.177Z,12.95
2017-09-01T05:59:45.806Z,12.92
2017-09-01T06:00:45.471Z,13.02
2017-09-01T06:01:45.778Z,12.99
2017-09-01T06:02:45.765Z,13.14
2017-09-01T06:03:45.430Z,13.12
2017-09-01T06:04:45.740Z,13.09
2017-09-01T06:05:45.090Z,13.11
2017-09-01T06:06:45.405Z,13.14
2017-09-01T06:07:45.060Z,13.15
2017-09-01T06:08:45.566Z,13.21
2017-09-01T06:09:45.028Z,13.24
2017-09-01T06:10:45.017Z,13.29
2017-09-01T06:11:45.650Z,13.29
2017-09-01T06:12:45.306Z,13.3
2017-09-01T06:13:45.642Z,13.25
2017-09-01T06:14:45.279Z,13.22
2017-09-01T06:15:44.945Z,13.37
2017-09-01T06:16:45.252Z,13.44
2017-09-01T06:17:45.246Z,13.32
2017-09-01T06:18:45.227Z,13.44
2017-09-01T06:19:44.901Z,13.52
2017-09-01T06:20:45.519Z,13.44
2017-09-01T06:21:45.506Z,13.61
2017-09-01T06:22:44.854Z,13.62
2017-09-01T06:23:45.159Z,13.59
2017-09-01T06:24:45.148Z,13.69
2017-09-01T06:25:45.458Z,13.61
2017-09-01T06:26:44.802Z,13.74
2017-09-01T06:27:45.430Z,13.84
2017-09-01T06:28:45.105Z,13.81
2017-09-01T06:29:45.401Z,13.83
2017-09-01T06:30:45.071Z,13.87
2017-09-01T06:31:45.057Z,13.79
2017-09-01T06:32:45.055Z,13.83
2017-09-01T06:33:45.031Z,13.81
2017-09-01T06:34:45.036Z,13.87
2017-09-01T06:35:45.328Z,13.88
2017-09-01T06:36:44.991Z,13.88
2017-09-01T06:37:44.656Z,13.94
2017-09-01T06:38:44.642Z,13.92
2017-09-01T06:39:44.633Z,13.99
2017-09-01T06:40:45.261Z,13.99
2017-09-01T06:41:44.924Z,13.91
2017-09-01T06:42:44.918Z,13.99
2017-09-01T06:43:45.222Z,13.98
2017-09-01T06:44:45.212Z,13.92
2017-09-01T06:45:44.556Z,13.95
2017-09-01T06:46:45.205Z,14.02
2017-09-01T06:47:45.169Z,13.95
2017-09-01T06:48:45.159Z,13.92
2017-09-01T06:49:45.144Z,14.07
2017-09-01T06:50:44.487Z,14.1
2017-09-01T06:51:44.799Z,14.07
2017-09-01T06:52:45.110Z,14.13
2017-09-01T06:53:44.774Z,14.14
2017-09-01T06:54:45.086Z,14.14
2017-09-01T06:55:44.428Z,14.25
2017-09-01T06:56:44.731Z,14.31
2017-09-01T06:57:44.728Z,14.32
2017-09-01T06:58:44.388Z,14.34
2017-09-01T06:59:44.376Z,14.32
2017-09-01T07:00:44.718Z,14.47
2017-09-01T07:01:44.699Z,14.5
2017-09-01T07:02:44.665Z,14.54
2017-09-01T07:03:44.649Z,14.61
2017-09-01T07:04:44.639Z,14.67
2017-09-01T07:05:44.625Z,14.68
2017-09-01T07:06:44.611Z,14.78
2017-09-01T07:07:44.924Z,14.86
2017-09-01T07:08:44.265Z,14.87
2017-09-01T07:09:44.911Z,15.03
2017-09-01T07:10:44.562Z,14.99
2017-09-01T07:11:44.884Z,15.05
2017-09-01T07:12:44.886Z,15.11
2017-09-01T07:13:44.530Z,15.13
2017-09-01T07:14:44.513Z,15.12
2017-09-01T07:15:44.504Z,15.27
2017-09-01T07:16:44.169Z,15.35
2017-09-01T07:17:44.156Z,15.3
2017-09-01T07:18:44.466Z,15.36
2017-09-01T07:19:44.132Z,15.38
2017-09-01T07:20:44.122Z,15.43
2017-09-01T07:21:44.431Z,15.42
2017-09-01T07:22:44.103Z,15.45
2017-09-01T07:23:44.406Z,15.46
2017-09-01T07:24:44.712Z,15.51
2017-09-01T07:25:44.383Z,15.52
2017-09-01T07:26:44.368Z,15.52
2017-09-01T07:27:44.362Z,15.61
2017-09-01T07:28:44.354Z,15.59
2017-09-01T07:29:44.653Z,15.67
2017-09-01T07:30:44.322Z,15.72
2017-09-01T07:31:44.640Z,15.67
2017-09-01T07:32:44.628Z,15.85
2017-09-01T07:33:44.285Z,15.92
2017-09-01T07:34:43.959Z,15.94
2017-09-01T07:35:44.295Z,16.01
2017-09-01T07:36:44.572Z,16.07
2017-09-01T07:37:43.928Z,16.14
2017-09-01T07:38:44.236Z,16.14
2017-09-01T07:39:43.899Z,16.27
2017-09-01T07:40:43.890Z,16.33
2017-09-01T07:41:44.198Z,16.33
2017-09-01T07:42:44.547Z,16.38
2017-09-01T07:43:43.854Z,16.48
2017-09-01T07:44:44.505Z,16.48
2017-09-01T07:45:44.475Z,16.5
2017-09-01T07:46:43.822Z,16.55
2017-09-01T07:47:44.130Z,16.6
2017-09-01T07:48:44.441Z,16.75
2017-09-01T07:49:44.107Z,16.71
2017-09-01T07:50:44.112Z,16.86
2017-09-01T07:51:44.405Z,16.8
2017-09-01T07:52:44.072Z,16.89
2017-09-01T07:53:44.386Z,16.92
2017-09-01T07:54:44.054Z,17.06
2017-09-01T07:55:44.047Z,17.04
2017-09-01T07:56:44.035Z,17.1
2017-09-01T07:57:43.701Z,17.14
2017-09-01T07:58:43.691Z,17.13
2017-09-01T07:59:44.000Z,17.17
2017-09-01T08:00:44.340Z,17.22
2017-09-01T08:01:43.983Z,17.17
2017-09-01T08:02:43.973Z,17.26
2017-09-01T08:03:43.955Z,17.28
2017-09-01T08:04:43.950Z,17.29
2017-09-01T08:05:43.945Z,17.33
2017-09-01T08:06:43.930Z,17.4
2017-09-01T08:07:44.236Z,17.33
2017-09-01T08:08:44.004Z,17.54
2017-09-01T08:09:44.219Z,17.5
2017-09-01T08:10:44.210Z,17.54
2017-09-01T08:11:44.199Z,17.59
2017-09-01T08:12:43.863Z,17.64
2017-09-01T08:13:43.857Z,17.78
2017-09-01T08:14:44.161Z,17.73
2017-09-01T08:15:43.849Z,17.81
2017-09-01T08:16:43.824Z,17.91
2017-09-01T08:17:44.149Z,17.92
2017-09-01T08:18:43.808Z,18.03
2017-09-01T08:19:43.468Z,17.95
2017-09-01T08:20:43.783Z,18.09
2017-09-01T08:21:44.089Z,18.09
2017-09-01T08:22:43.444Z,18.09
2017-09-01T08:23:44.082Z,18.19
2017-09-01T08:24:44.064Z,18.43
2017-09-01T08:25:44.066Z,18.67
2017-09-01T08:26:43.404Z,18.9
2017-09-01T08:27:43.714Z,19.02
2017-09-01T08:28:44.037Z,19.05
2017-09-01T08:29:43.377Z,19.13
2017-09-01T08:30:44.013Z,18.99
2017-09-01T08:31:43.681Z,18.95
2017-09-01T08:32:43.672Z,18.83
2017-09-01T08:33:43.663Z,19.01
2017-09-01T08:34:43.974Z,19.05
2017-09-01T08:35:44.093Z,19.08
2017-09-01T08:36:43.959Z,18.94
2017-09-01T08:37:43.623Z,18.91
2017-09-01T08:38:43.937Z,18.82
2017-09-01T08:39:43.602Z,18.84
2017-09-01T08:40:43.279Z,18.77
2017-09-01T08:41:43.589Z,18.8
2017-09-01T08:42:43.270Z,18.74
2017-09-01T08:43:43.570Z,18.74
2017-09-01T08:44:43.559Z,18.74
2017-09-01T08:45:43.555Z,18.59
2017-09-01T08:46:43.541Z,18.68
2017-09-01T08:47:43.208Z,18.65
2017-09-01T08:48:43.524Z,18.54
2017-09-01T08:49:43.513Z,18.62
2017-09-01T08:50:43.823Z,18.59
2017-09-01T08:51:43.497Z,18.64
2017-09-01T08:52:43.804Z,18.55
2017-09-01T08:53:43.483Z,18.57
2017-09-01T08:54:43.793Z,18.61
2017-09-01T08:55:43.465Z,18.61
2017-09-01T08:56:43.446Z,18.57
2017-09-01T08:57:43.438Z,18.54
2017-09-01T08:58:43.427Z,18.67
2017-09-01T08:59:43.098Z,18.61
2017-09-01T09:00:43.408Z,18.62
2017-09-01T09:01:43.081Z,18.79
2017-09-01T09:02:43.713Z,18.84
2017-09-01T09:03:43.389Z,18.79
2017-09-01T09:04:43.728Z,18.79
2017-09-01T09:05:43.044Z,18.92
2017-09-01T09:06:43.357Z,19.01
2017-09-01T09:07:43.383Z,19.06
2017-09-01T09:08:43.668Z,19.15
2017-09-01T09:09:43.007Z,19.25
2017-09-01T09:10:43.318Z,19.23
2017-09-01T09:11:42.987Z,19.33
2017-09-01T09:12:43.663Z,19.38
2017-09-01T09:13:42.978Z,19.48
2017-09-01T09:14:43.614Z,19.39
2017-09-01T09:15:43.278Z,19.39
2017-09-01T09:16:43.290Z,19.4
2017-09-01T09:17:43.591Z,19.4
2017-09-01T09:18:43.248Z,19.42
2017-09-01T09:19:43.255Z,19.39
2017-09-01T09:20:42.917Z,19.36
2017-09-01T09:21:43.257Z,19.32
2017-09-01T09:22:43.216Z,19.31
2017-09-01T09:23:42.902Z,19.33
2017-09-01T09:24:43.245Z,19.31
2017-09-01T09:25:43.252Z,19.33
2017-09-01T09:26:43.183Z,19.32
2017-09-01T09:27:43.179Z,19.4
2017-09-01T09:28:42.846Z,19.5
2017-09-01T09:29:42.842Z,19.4
2017-09-01T09:30:43.151Z,19.61
2017-09-01T09:31:43.494Z,19.48
2017-09-01T09:32:42.816Z,19.6
2017-09-01T09:33:43.137Z,19.6
2017-09-01T09:34:43.121Z,19.79
2017-09-01T09:35:42.807Z,19.87
2017-09-01T09:36:43.422Z,19.95
2017-09-01T09:37:43.419Z,19.91
2017-09-01T09:38:43.088Z,19.95
2017-09-01T09:39:43.098Z,19.97
2017-09-01T09:40:43.082Z,20.03
2017-09-01T09:41:43.062Z,20.06
2017-09-01T09:42:43.055Z,20.09
2017-09-01T09:43:43.122Z,20.05
2017-09-01T09:44:43.045Z,20.08
2017-09-01T09:45:43.033Z,20.09
2017-09-01T09:46:42.703Z,19.94
2017-09-01T09:47:43.019Z,20.02
2017-09-01T09:48:43.016Z,19.97
2017-09-01T09:49:43.003Z,19.93
2017-09-01T09:50:42.999Z,19.84
2017-09-01T09:51:42.693Z,19.87
2017-09-01T09:52:42.982Z,19.94
2017-09-01T09:53:43.297Z,19.97
2017-09-01T09:54:43.291Z,19.97
2017-09-01T09:55:42.955Z,19.95
2017-09-01T09:56:42.630Z,20.02
2017-09-01T09:57:43.273Z,19.97
2017-09-01T09:58:43.309Z,20.02
2017-09-01T09:59:43.252Z,20.02
2017-09-01T10:00:42.922Z,19.98
2017-09-01T10:01:43.238Z,19.94
2017-09-01T10:02:42.908Z,19.91
2017-09-01T10:03:43.247Z,19.95
2017-09-01T10:04:42.893Z,19.95
2017-09-01T10:05:43.210Z,19.97
2017-09-01T10:06:43.203Z,19.91
2017-09-01T10:07:42.550Z,19.95
2017-09-01T10:08:43.386Z,19.97
2017-09-01T10:09:42.539Z,19.91
2017-09-01T10:10:42.853Z,19.9
2017-09-01T10:11:43.164Z,19.95
2017-09-01T10:12:42.834Z,19.98
2017-09-01T10:13:42.822Z,20.09
2017-09-01T10:14:42.821Z,20.09
2017-09-01T10:15:43.152Z,20.18
2017-09-01T10:16:43.124Z,20.1
2017-09-01T10:17:42.793Z,20.12
2017-09-01T10:18:42.466Z,20.13
2017-09-01T10:19:42.786Z,20.1
2017-09-01T10:20:42.454Z,20.08
2017-09-01T10:21:43.094Z,20.05
2017-09-01T10:22:42.764Z,20.12
2017-09-01T10:23:43.131Z,20.12
2017-09-01T10:24:42.746Z,20.13
2017-09-01T10:25:42.418Z,20.02
2017-09-01T10:26:42.732Z,19.98
2017-09-01T10:27:43.050Z,19.95
2017-09-01T10:28:43.041Z,19.9
2017-09-01T10:29:42.707Z,19.78
2017-09-01T10:30:42.705Z,19.79
2017-09-01T10:31:42.698Z,19.84
2017-09-01T10:32:43.007Z,19.86
2017-09-01T10:33:42.361Z,19.94
2017-09-01T10:34:42.675Z,19.98
2017-09-01T10:35:42.993Z,19.95
2017-09-01T10:36:42.338Z,20.09
2017-09-01T10:37:42.974Z,20.21
2017-09-01T10:38:42.322Z,20.25
2017-09-01T10:39:42.964Z,20.47
2017-09-01T10:40:42.632Z,20.56
2017-09-01T10:41:42.622Z,20.76
2017-09-01T10:42:42.617Z,20.66
2017-09-01T10:43:42.662Z,20.83
2017-09-01T10:44:42.923Z,20.84
2017-09-01T10:45:42.929Z,20.98
2017-09-01T10:46:42.270Z,20.96
2017-09-01T10:47:42.587Z,21.16
2017-09-01T10:48:42.904Z,21.29
2017-09-01T10:49:42.254Z,21.3
2017-09-01T10:50:42.569Z,21.45
2017-09-01T10:51:42.561Z,21.51
2017-09-01T10:52:42.874Z,21.53
2017-09-01T10:53:42.229Z,21.5
2017-09-01T10:54:42.543Z,21.63
2017-09-01T10:55:42.536Z,21.61
2017-09-01T10:56:42.212Z,21.57
2017-09-01T10:57:42.848Z,21.64
2017-09-01T10:58:42.524Z,21.71
2017-09-01T10:59:42.836Z,21.69
2017-09-01T11:00:42.512Z,21.63
2017-09-01T11:01:42.178Z,21.59
2017-09-01T11:02:42.182Z,21.54
2017-09-01T11:03:42.214Z,21.41
2017-09-01T11:04:42.199Z,21.41
2017-09-01T11:05:42.509Z,21.3
2017-09-01T11:06:42.810Z,21.17
2017-09-01T11:07:42.811Z,21.01
2017-09-01T11:08:42.787Z,20.95
2017-09-01T11:09:42.145Z,20.83
2017-09-01T11:10:42.167Z,20.79
2017-09-01T11:11:42.149Z,20.86
2017-09-01T11:12:42.772Z,20.79
2017-09-01T11:13:42.757Z,20.8
2017-09-01T11:14:42.429Z,20.66
2017-09-01T11:15:42.425Z,20.74
2017-09-01T11:16:42.768Z,20.68
2017-09-01T11:17:42.409Z,20.61
2017-09-01T11:18:42.400Z,20.61
2017-09-01T11:19:42.722Z,20.49
2017-09-01T11:20:42.081Z,20.5
2017-09-01T11:21:42.703Z,20.39
2017-09-01T11:22:42.702Z,20.38
2017-09-01T11:23:42.049Z,20.39
2017-09-01T11:24:42.358Z,20.25
2017-09-01T11:25:42.353Z,20.31
2017-09-01T11:26:42.350Z,20.24
2017-09-01T11:27:42.658Z,20.24
2017-09-01T11:28:42.654Z,20.13
2017-09-01T11:29:42.330Z,20.06
2017-09-01T11:30:42.320Z,20.12
2017-09-01T11:31:42.322Z,20.15
2017-09-01T11:32:42.309Z,20.09
2017-09-01T11:33:42.619Z,20.08
2017-09-01T11:34:42.296Z,19.97
2017-09-01T11:35:42.281Z,19.97
2017-09-01T11:36:41.960Z,19.97
2017-09-01T11:37:42.283Z,20
2017-09-01T11:38:42.366Z,19.97
2017-09-01T11:39:42.249Z,19.98
2017-09-01T11:40:42.255Z,19.93
2017-09-01T11:41:41.969Z,19.86
2017-09-01T11:42:41.910Z,19.84
2017-09-01T11:43:42.583Z,19.78
2017-09-01T11:44:42.215Z,19.73
2017-09-01T11:45:42.212Z,19.69
2017-09-01T11:46:42.203Z,19.66
2017-09-01T11:47:42.554Z,19.72
2017-09-01T11:48:41.860Z,19.66
2017-09-01T11:49:42.295Z,19.6
2017-09-01T11:50:42.499Z,19.58
2017-09-01T11:51:42.221Z,19.57
2017-09-01T11:52:42.153Z,19.53
2017-09-01T11:53:42.479Z,19.43
2017-09-01T11:54:42.134Z,19.57
2017-09-01T11:55:42.142Z,19.53
2017-09-01T11:56:42.450Z,19.4
2017-09-01T11:57:41.811Z,19.39
2017-09-01T11:58:42.139Z,19.39
2017-09-01T11:59:42.091Z,19.39
2017-09-01T12:00:42.085Z,19.35
2017-09-01T12:01:41.757Z,19.29
2017-09-01T12:02:42.065Z,19.39
2017-09-01T12:03:42.061Z,19.32
2017-09-01T12:04:42.051Z,19.18
2017-09-01T12:05:41.719Z,19.18
2017-09-01T12:06:42.036Z,19.15
2017-09-01T12:07:41.710Z,19.25
2017-09-01T12:08:42.013Z,19.14
2017-09-01T12:09:41.885Z,19.14
2017-09-01T12:10:41.677Z,19.06
2017-09-01T12:11:41.990Z,19.1
2017-09-01T12:12:41.979Z,19.11
2017-09-01T12:13:41.970Z,19.13
2017-09-01T12:14:42.293Z,19.01
2017-09-01T12:15:41.955Z,19.02
2017-09-01T12:16:41.952Z,19.01
2017-09-01T12:17:41.942Z,18.95
2017-09-01T12:18:42.267Z,18.83
2017-09-01T12:19:41.921Z,18.94
2017-09-01T12:20:41.911Z,18.87
2017-09-01T12:21:42.223Z,18.82
2017-09-01T12:22:42.213Z,18.77
2017-09-01T12:23:41.558Z,18.74
2017-09-01T12:24:41.552Z,18.76
2017-09-01T12:25:41.545Z,18.67
2017-09-01T12:26:41.535Z,18.68
2017-09-01T12:27:42.168Z,18.65
2017-09-01T12:28:41.513Z,18.62
2017-09-01T12:29:42.146Z,18.46
2017-09-01T12:30:41.820Z,18.43
2017-09-01T12:31:41.493Z,18.44
2017-09-01T12:32:42.127Z,18.42
2017-09-01T12:33:41.469Z,18.36
2017-09-01T12:34:41.881Z,18.27
2017-09-01T12:35:41.774Z,18.29
2017-09-01T12:36:41.760Z,18.33
2017-09-01T12:37:41.757Z,18.21
2017-09-01T12:38:41.742Z,18.17
2017-09-01T12:39:41.411Z,18.1
2017-09-01T12:40:41.771Z,18.18
2017-09-01T12:41:42.037Z,18.07
2017-09-01T12:42:42.033Z,18.12
2017-09-01T12:43:41.716Z,18.07
2017-09-01T12:44:41.688Z,18.12
2017-09-01T12:45:41.672Z,17.97
2017-09-01T12:46:41.349Z,17.97
2017-09-01T12:47:41.975Z,17.89
2017-09-01T12:48:41.324Z,17.85
2017-09-01T12:49:41.636Z,17.71
2017-09-01T12:50:41.627Z,17.57
2017-09-01T12:51:41.616Z,17.54
2017-09-01T12:52:41.935Z,17.41
2017-09-01T12:53:41.915Z,17.29
2017-09-01T12:54:41.582Z,17.18